Time;durP1;ratioP1;P1;durP2;ratioP2;P2;SDS_P1;SDS_P2;PMS_P1;PMS_P2;Temp;Humidity;BMP_temperature;BMP_pressure;BME280_temperature;BME280_humidity;BME280_pressure;Samples;Min_cycle;Max_cycle;Signal;HPM_P1;HPM_P2
2023/08/16 00:00:48;;;;;;;15.80;6.87;;;;;;;26.36;62.38;100669.27;1776557;80;21334;-77
2023/08/16 00:03:54;;;;;;;8.90;6.83;;;;;;;26.59;61.61;100674.47;1776448;80;22445;-76
2023/08/16 00:07:01;;;;;;;8.28;6.37;;;;;;;26.75;61.21;100671.15;1777874;80;21319;-77
2023/08/16 00:10:09;;;;;;;15.98;7.12;;;;;;;26.64;61.39;100670.27;1776919;80;21366;-76
2023/08/16 00:13:15;;;;;;;13.45;7.28;;;;;;;26.40;61.95;100670.42;1777114;80;21682;-77
2023/08/16 00:16:21;;;;;;;13.60;7.85;;;;;;;26.32;62.33;100668.13;1777652;80;21307;-77
2023/08/16 00:19:28;;;;;;;14.20;6.85;;;;;;;26.43;62.03;100670.72;1777585;80;21295;-76
2023/08/16 00:22:34;;;;;;;12.05;7.28;;;;;;;26.33;62.63;100668.41;1777521;80;21287;-77
2023/08/16 00:25:40;;;;;;;11.28;6.95;;;;;;;26.34;62.76;100671.48;1776883;80;21897;-77
2023/08/16 00:28:47;;;;;;;16.60;7.17;;;;;;;26.52;62.31;100675.82;1778603;80;21857;-77
2023/08/16 00:31:53;;;;;;;12.60;7.40;;;;;;;26.83;61.37;100669.78;1777857;79;21318;-77
2023/08/16 00:34:59;;;;;;;14.55;7.45;;;;;;;26.63;61.86;100677.02;1777859;80;21313;-76
2023/08/16 00:38:05;;;;;;;10.38;7.45;;;;;;;26.69;61.78;100671.70;1777127;80;21358;-76
2023/08/16 00:41:11;;;;;;;10.35;6.45;;;;;;;26.75;61.59;100668.34;1776658;80;21373;-77
2023/08/16 00:44:17;;;;;;;10.58;6.85;;;;;;;26.69;61.64;100674.50;1776568;80;21327;-77
2023/08/16 00:47:24;;;;;;;9.95;7.10;;;;;;;26.77;61.47;100668.90;1777656;80;21392;-77
2023/08/16 00:50:30;;;;;;;13.48;7.17;;;;;;;26.85;61.15;100664.72;1777583;80;21846;-77
2023/08/16 00:53:37;;;;;;;10.75;7.60;;;;;;;26.85;61.00;100664.72;1777080;80;21940;-77
2023/08/16 00:56:43;;;;;;;14.87;7.22;;;;;;;26.79;61.19;100671.45;1772708;80;21332;-77
2023/08/16 00:59:50;;;;;;;10.88;7.30;;;;;;;26.70;61.41;100663.55;1758295;81;21312;-77
2023/08/16 01:02:57;;;;;;;17.10;7.62;;;;;;;26.56;61.88;100662.38;1782207;79;21311;-77
2023/08/16 01:06:03;;;;;;;11.65;6.97;;;;;;;26.42;62.51;100662.56;1801271;79;21295;-76
2023/08/16 01:09:09;;;;;;;11.45;6.65;;;;;;;26.30;62.95;100663.33;1802401;79;21169;-76
2023/08/16 01:12:37;;;;;;;10.63;6.83;;;;;;;26.40;62.79;100658.64;1801798;79;21307;-77
2023/08/16 01:15:48;;;;;;;10.18;7.22;;;;;;;26.62;61.94;100661.83;1800905;79;21310;-77
2023/08/16 01:18:54;;;;;;;12.23;6.70;;;;;;;26.87;61.12;100661.10;1800941;79;21288;-77
2023/08/16 01:22:17;;;;;;;14.13;7.55;;;;;;;26.70;61.43;100662.16;1800982;79;21869;-76
2023/08/16 01:25:34;;;;;;;8.70;6.83;;;;;;;26.09;63.43;100661.82;1784641;79;21323;-77
2023/08/16 01:28:41;;;;;;;10.23;6.90;;;;;;;26.19;63.30;100654.02;1801323;79;21296;-76
2023/08/16 01:31:46;;;;;;;10.72;6.10;;;;;;;26.18;63.35;100654.59;1799238;79;21260;-76
2023/08/16 01:34:52;;;;;;;12.28;7.28;;;;;;;26.02;63.90;100648.62;1758612;81;21351;-76
2023/08/16 01:37:57;;;;;;;11.73;6.30;;;;;;;26.20;63.62;100648.14;1757901;81;21351;-76
2023/08/16 01:41:19;;;;;;;9.10;7.05;;;;;;;26.18;63.60;100660.19;1757995;81;21328;-76
2023/08/16 01:44:26;;;;;;;12.03;7.10;;;;;;;25.94;64.46;100654.72;1758052;81;21316;-76
2023/08/16 01:47:32;;;;;;;9.40;6.50;;;;;;;26.09;64.12;100648.36;1762884;79;21295;-76
2023/08/16 01:50:38;;;;;;;11.68;6.97;;;;;;;26.11;64.02;100646.99;1769095;81;21601;-76
2023/08/16 01:53:45;;;;;;;10.15;6.75;;;;;;;26.49;62.98;100650.59;1768811;81;21279;-76
2023/08/16 01:56:50;;;;;;;10.65;6.65;;;;;;;26.31;63.41;100642.61;1767797;81;21719;-75
2023/08/16 01:59:56;;;;;;;10.98;7.33;;;;;;;26.40;63.10;100648.83;1768403;81;21294;-76
2023/08/16 02:03:07;;;;;;;12.85;7.92;;;;;;;25.38;66.47;100643.89;1785851;79;21605;-76
2023/08/16 02:06:14;;;;;;;12.10;7.15;;;;;;;25.98;64.57;100640.46;1757290;81;21315;-76
2023/08/16 02:09:21;;;;;;;12.30;7.12;;;;;;;25.58;65.82;100640.41;1757169;81;21863;-77
2023/08/16 02:12:27;;;;;;;12.68;7.05;;;;;;;25.60;65.86;100643.80;1756103;81;21296;-77
2023/08/16 02:15:33;;;;;;;14.68;8.13;;;;;;;25.71;65.53;100637.16;1756342;81;21336;-77
2023/08/16 02:18:39;;;;;;;9.35;7.15;;;;;;;25.61;65.88;100642.69;1745640;79;21295;-76
2023/08/16 02:21:47;;;;;;;16.70;7.40;;;;;;;25.61;65.96;100643.24;1768711;81;22535;-77
2023/08/16 02:24:54;;;;;;;15.63;7.35;;;;;;;25.58;66.04;100643.20;1768219;81;21375;-77
2023/08/16 02:27:59;;;;;;;10.58;7.35;;;;;;;25.65;65.89;100643.00;1767319;81;21338;-77
2023/08/16 02:31:12;;;;;;;12.50;6.83;;;;;;;25.76;65.55;100645.34;1768509;81;21320;-77
2023/08/16 02:34:19;;;;;;;12.25;7.53;;;;;;;25.71;65.73;100648.36;1768264;79;21299;-77
2023/08/16 02:37:26;;;;;;;10.75;7.58;;;;;;;25.64;66.01;100647.76;1767913;81;21366;-77
2023/08/16 02:40:31;;;;;;;11.97;7.60;;;;;;;25.61;66.06;100646.88;1766659;81;21366;-77
2023/08/16 02:43:36;;;;;;;14.20;8.30;;;;;;;25.57;66.34;100644.88;1766505;81;21308;-76
2023/08/16 02:46:42;;;;;;;16.15;7.37;;;;;;;25.66;66.10;100639.08;1766723;79;21331;-77
2023/08/16 02:49:49;;;;;;;14.68;8.63;;;;;;;25.67;66.07;100637.40;1768148;80;21851;-77
2023/08/16 02:52:54;;;;;;;11.00;7.85;;;;;;;25.42;66.81;100642.25;1768250;81;21881;-77
2023/08/16 02:56:01;;;;;;;8.15;7.08;;;;;;;25.49;66.81;100637.81;1767382;81;21343;-77
2023/08/16 02:59:07;;;;;;;9.48;7.80;;;;;;;25.47;67.09;100644.25;1760760;79;21339;-77
2023/08/16 03:02:13;;;;;;;13.38;7.70;;;;;;;25.44;67.36;100644.21;1748487;81;21323;-77
2023/08/16 03:05:21;;;;;;;12.58;8.20;;;;;;;25.80;66.64;100645.94;1719745;81;21310;-77
2023/08/16 03:08:27;;;;;;;13.62;7.92;;;;;;;26.19;65.46;100646.45;1717472;83;21227;-76
2023/08/16 03:11:32;;;;;;;12.93;8.43;;;;;;;26.32;65.24;100649.34;1718976;83;22508;-77
2023/08/16 03:14:39;;;;;;;19.02;8.83;;;;;;;26.39;64.97;100649.92;1718847;83;21346;-77
2023/08/16 03:17:45;;;;;;;14.10;8.10;;;;;;;26.07;65.87;100647.25;1730205;81;22546;-77
2023/08/16 03:20:52;;;;;;;17.92;8.45;;;;;;;26.12;65.97;100654.28;1742024;82;21363;-77
2023/08/16 03:23:58;;;;;;;13.58;8.78;;;;;;;26.31;65.51;100651.02;1741965;82;21870;-77
2023/08/16 03:27:04;;;;;;;13.70;9.15;;;;;;;26.29;65.72;100653.23;1740576;82;21316;-77
2023/08/16 03:30:13;;;;;;;11.28;8.05;;;;;;;26.66;64.46;100655.40;1741787;82;21304;-77
2023/08/16 03:33:18;;;;;;;13.83;8.83;;;;;;;26.87;63.84;100659.70;1759919;81;21617;-77
2023/08/16 03:36:23;;;;;;;17.02;8.85;;;;;;;26.73;64.44;100664.42;1766705;81;21933;-77
2023/08/16 03:39:28;;;;;;;11.57;8.53;;;;;;;27.12;63.30;100662.59;1767427;81;21328;-77
2023/08/16 03:42:35;;;;;;;15.88;8.60;;;;;;;27.16;63.24;100663.72;1767491;81;21370;-77
2023/08/16 03:45:40;;;;;;;13.85;9.03;;;;;;;27.40;62.54;100663.19;1767431;81;22663;-77
2023/08/16 03:48:47;;;;;;;11.60;8.13;;;;;;;27.63;61.89;100665.45;1767358;81;21323;-77
2023/08/16 03:51:53;;;;;;;14.33;8.40;;;;;;;27.66;61.63;100667.67;1768405;81;21315;-76
2023/08/16 03:54:59;;;;;;;20.65;8.98;;;;;;;27.70;61.58;100668.80;1769513;81;21323;-77
2023/08/16 03:58:04;;;;;;;18.62;8.63;;;;;;;27.94;60.91;100669.66;1768196;81;21350;-77
2023/08/16 04:01:11;;;;;;;14.28;8.83;;;;;;;27.82;61.14;100672.77;1796489;79;21319;-77
2023/08/16 04:04:17;;;;;;;14.50;8.10;;;;;;;27.75;61.75;100667.98;1809814;79;21303;-77
2023/08/16 04:07:23;;;;;;;19.25;8.45;;;;;;;27.89;61.61;100671.91;1809025;79;21318;-77
2023/08/16 04:10:30;;;;;;;12.85;8.08;;;;;;;28.22;60.71;100670.44;1808571;79;21327;-76
2023/08/16 04:13:35;;;;;;;22.98;8.28;;;;;;;28.42;60.12;100669.59;1808338;79;22440;-77
2023/08/16 04:16:41;;;;;;;15.90;8.03;;;;;;;28.57;59.63;100670.09;1809397;79;21331;-76
2023/08/16 04:19:47;;;;;;;16.30;8.63;;;;;;;28.82;58.90;100671.11;1809848;79;21339;-77
2023/08/16 04:22:55;;;;;;;15.28;8.28;;;;;;;28.71;59.28;100676.78;1808334;79;21342;-77
2023/08/16 04:26:01;;;;;;;11.93;7.62;;;;;;;29.11;58.05;100678.29;1808352;79;21303;-77
2023/08/16 04:29:07;;;;;;;11.88;7.97;;;;;;;29.37;57.43;100680.38;1808162;79;21335;-77
2023/08/16 04:32:14;;;;;;;15.98;7.25;;;;;;;29.46;56.67;100674.40;1809725;79;21905;-76
2023/08/16 04:35:19;;;;;;;14.73;7.95;;;;;;;29.58;56.33;100674.87;1809826;79;21300;-77
2023/08/16 04:38:25;;;;;;;14.13;7.55;;;;;;;29.42;56.67;100678.94;1808377;79;21342;-76
2023/08/16 04:41:30;;;;;;;8.70;7.40;;;;;;;29.55;56.28;100679.72;1810066;79;21299;-77
2023/08/16 04:44:36;;;;;;;13.72;7.50;;;;;;;29.65;55.92;100679.62;1809245;79;22744;-77
2023/08/16 04:47:44;;;;;;;20.43;8.15;;;;;;;30.66;52.91;100679.71;1809072;79;21294;-76
2023/08/16 04:50:50;;;;;;;13.83;7.53;;;;;;;30.32;53.91;100678.44;1809628;79;21688;-76
2023/08/16 04:53:57;;;;;;;11.53;7.20;;;;;;;30.38;53.75;100674.41;1787341;79;21294;-76
2023/08/16 04:57:03;;;;;;;10.93;6.75;;;;;;;30.26;53.63;100672.02;1809321;79;21327;-76
2023/08/16 05:00:09;;;;;;;10.05;7.37;;;;;;;30.31;53.83;100672.52;1808690;79;21977;-77
2023/08/16 05:03:17;;;;;;;14.28;8.58;;;;;;;30.59;53.13;100677.84;1782271;79;21897;-77
2023/08/16 05:06:23;;;;;;;13.15;7.30;;;;;;;30.66;52.60;100683.95;1773410;81;22673;-77
2023/08/16 05:09:29;;;;;;;12.43;7.37;;;;;;;30.79;52.19;100677.60;1774474;79;21279;-77
2023/08/16 05:12:35;;;;;;;11.95;7.60;;;;;;;31.13;51.39;100672.90;1797338;79;22421;-77
2023/08/16 05:15:41;;;;;;;15.75;6.72;;;;;;;30.90;52.09;100677.45;1785653;79;21961;-77
2023/08/16 05:18:48;;;;;;;13.88;8.00;;;;;;;30.97;51.79;100683.02;1787168;79;21331;-78
2023/08/16 05:21:55;;;;;;;12.07;6.87;;;;;;;31.21;51.12;100677.30;1794651;79;21304;-77
2023/08/16 05:25:01;;;;;;;10.18;6.53;;;;;;;31.35;50.69;100675.16;1785704;79;21306;-78
2023/08/16 05:28:07;;;;;;;10.88;7.00;;;;;;;31.46;50.19;100669.59;1775633;79;22604;-77
2023/08/16 05:31:18;;;;;;;15.18;7.20;;;;;;;31.65;49.81;100678.05;1780688;79;21327;-77
2023/08/16 05:34:23;;;;;;;14.50;6.40;;;;;;;31.87;49.54;100677.42;1779609;79;21299;-77
2023/08/16 05:37:29;;;;;;;7.83;5.78;;;;;;;32.00;48.82;100674.63;1782824;79;21882;-78
2023/08/16 05:40:35;;;;;;;13.90;6.65;;;;;;;32.30;48.00;100678.86;1776256;79;21319;-77
2023/08/16 05:43:43;;;;;;;16.62;6.85;;;;;;;32.35;48.31;100678.50;1775758;79;21316;-79
2023/08/16 05:46:50;;;;;;;19.55;7.47;;;;;;;32.27;48.64;100678.64;1783772;79;21213;-78
2023/08/16 05:49:57;;;;;;;16.07;7.50;;;;;;;32.37;48.33;100676.21;1788438;79;21323;-78
2023/08/16 05:53:02;;;;;;;13.15;7.60;;;;;;;32.41;48.58;100678.68;1784666;79;21311;-78
2023/08/16 05:56:08;;;;;;;14.75;7.12;;;;;;;32.05;48.72;100676.53;1787416;79;21925;-78
2023/08/16 05:59:14;;;;;;;12.70;7.10;;;;;;;32.34;48.33;100681.91;1789219;79;22016;-78
2023/08/16 06:02:23;;;;;;;9.28;6.60;;;;;;;32.45;47.68;100674.91;1783068;79;21342;-78
2023/08/16 06:05:28;;;;;;;11.73;7.05;;;;;;;32.44;47.46;100678.90;1786725;79;21248;-79
2023/08/16 06:08:33;;;;;;;12.47;7.10;;;;;;;32.58;47.58;100678.06;1797508;79;21264;-78
2023/08/16 06:11:39;;;;;;;9.85;6.78;;;;;;;32.58;47.58;100678.06;1778439;79;21299;-78
2023/08/16 06:14:46;;;;;;;10.50;6.40;;;;;;;32.91;46.94;100664.64;1787883;79;21594;-78
2023/08/16 06:17:53;;;;;;;9.18;6.53;;;;;;;33.15;45.79;100679.95;1782459;78;21327;-78
2023/08/16 06:21:00;;;;;;;10.65;6.33;;;;;;;33.15;45.79;100679.95;1769676;79;21665;-78
2023/08/16 06:24:08;;;;;;;15.28;6.35;;;;;;;33.52;44.03;100674.56;1784928;79;21310;-78
2023/08/16 06:27:14;;;;;;;10.60;6.40;;;;;;;33.52;44.03;100674.56;1785903;78;21303;-77
2023/08/16 06:30:20;;;;;;;8.88;5.62;;;;;;;33.90;42.78;100678.42;1788760;79;21284;-78
2023/08/16 06:33:27;;;;;;;9.35;5.90;;;;;;;33.65;43.22;100677.92;1789642;78;21917;-78
2023/08/16 06:36:32;;;;;;;12.53;6.53;;;;;;;33.85;42.91;100677.97;1793711;78;21349;-78
2023/08/16 06:39:39;;;;;;;14.98;6.58;;;;;;;34.04;42.61;100680.63;1775217;79;21302;-78
2023/08/16 06:42:48;;;;;;;10.82;6.67;;;;;;;33.92;43.53;100675.50;1787001;78;21294;-78
2023/08/16 06:45:54;;;;;;;19.90;6.92;;;;;;;34.16;43.06;100669.52;1795143;78;21343;-79
2023/08/16 06:49:00;;;;;;;10.45;6.60;;;;;;;34.16;43.06;100669.52;1781063;79;22661;-77
2023/08/16 06:52:05;;;;;;;16.05;7.17;;;;;;;34.19;42.89;100665.17;1792106;79;21634;-78
2023/08/16 06:55:10;;;;;;;11.75;6.17;;;;;;;34.23;43.20;100655.67;1787489;79;21548;-78
2023/08/16 06:58:18;;;;;;;10.25;6.05;;;;;;;34.51;42.75;100660.58;1777640;79;21639;-78
2023/08/16 07:01:24;;;;;;;13.60;6.53;;;;;;;34.15;43.28;100649.37;1778998;79;21881;-78
2023/08/16 07:04:29;;;;;;;12.90;6.53;;;;;;;34.42;42.94;100652.58;1780540;78;21307;-78
2023/08/16 07:07:37;;;;;;;8.30;6.37;;;;;;;34.42;42.41;100647.48;1790446;78;21287;-77
2023/08/16 07:10:44;;;;;;;10.35;5.87;;;;;;;34.61;42.34;100648.08;1786948;78;22441;-78
2023/08/16 07:13:49;;;;;;;10.55;5.60;;;;;;;34.40;41.63;100654.09;1787951;79;22544;-78
2023/08/16 07:16:55;;;;;;;5.95;4.60;;;;;;;34.60;40.50;100647.84;1778929;78;22596;-77
2023/08/16 07:20:07;;;;;;;7.45;4.70;;;;;;;34.61;39.63;100648.08;1780537;79;21323;-78
2023/08/16 07:23:11;;;;;;;9.55;4.47;;;;;;;34.64;40.18;100648.02;1780794;79;21315;-78
2023/08/16 07:26:17;;;;;;;4.70;3.27;;;;;;;34.62;38.90;100648.33;1786244;79;21286;-76
2023/08/16 07:29:22;;;;;;;10.82;3.55;;;;;;;34.72;38.25;100645.17;1792752;78;21874;-77
2023/08/16 07:32:29;;;;;;;5.40;3.15;;;;;;;34.72;37.62;100646.59;1790483;79;21377;-78
2023/08/16 07:35:40;;;;;;;4.37;2.92;;;;;;;34.81;36.59;100640.34;1787895;79;21931;-77
2023/08/16 07:38:47;;;;;;;7.80;2.70;;;;;;;34.77;36.53;100645.05;1784004;79;21377;-77
2023/08/16 07:41:54;;;;;;;5.80;2.80;;;;;;;34.93;35.08;100640.30;1791569;79;21292;-78
2023/08/16 07:45:02;;;;;;;4.00;2.67;;;;;;;34.93;35.08;100640.30;1788234;78;21271;-78
2023/08/16 07:48:07;;;;;;;7.10;2.72;;;;;;;35.04;33.67;100640.25;1786461;79;21343;-76
2023/08/16 07:51:13;;;;;;;2.52;2.15;;;;;;;35.02;32.87;100642.02;1792536;79;22582;-76
2023/08/16 07:54:17;;;;;;;2.02;1.57;;;;;;;35.02;33.56;100642.02;1790542;78;21287;-76
2023/08/16 07:57:25;;;;;;;3.33;2.30;;;;;;;34.89;32.49;100640.71;1784640;78;21882;-77
2023/08/16 08:00:34;;;;;;;11.93;2.20;;;;;;;34.89;31.37;100647.23;1784853;79;21351;-78
2023/08/16 08:03:41;;;;;;;7.72;2.70;;;;;;;34.99;31.91;100637.58;1784312;79;21342;-78
2023/08/16 08:06:47;;;;;;;9.83;2.70;;;;;;;34.92;33.24;100635.80;1783742;79;21579;-78
2023/08/16 08:09:53;;;;;;;4.25;2.72;;;;;;;35.09;32.46;100642.93;1785788;78;21330;-77
2023/08/16 08:12:59;;;;;;;3.55;1.98;;;;;;;35.22;31.67;100639.69;1717744;81;21301;-78
2023/08/16 08:16:04;;;;;;;3.12;1.85;;;;;;;35.17;31.52;100639.85;1785262;78;21280;-78
2023/08/16 08:19:11;;;;;;;7.03;2.42;;;;;;;34.95;30.06;100641.63;1791741;78;22552;-78
2023/08/16 08:22:17;;;;;;;18.48;2.98;;;;;;;34.92;32.14;100627.27;1787839;78;21292;-77
2023/08/16 08:25:24;;;;;;;3.10;2.20;;;;;;;34.90;33.68;100637.53;1779848;79;21322;-76
2023/08/16 08:28:31;;;;;;;4.53;2.47;;;;;;;35.00;32.35;100627.28;1790057;79;21616;-76
2023/08/16 08:31:37;;;;;;;8.35;2.72;;;;;;;34.99;33.32;100630.47;1794076;79;21284;-77
2023/08/16 08:34:46;;;;;;;3.17;1.98;;;;;;;35.01;32.68;100620.45;1794308;79;21854;-76
2023/08/16 08:37:53;;;;;;;5.90;2.40;;;;;;;34.72;32.87;100626.71;1770728;79;21352;-76
2023/08/16 08:41:06;;;;;;;8.53;2.35;;;;;;;34.95;31.58;100628.00;1787240;79;21732;-76
2023/08/16 08:44:13;;;;;;;7.67;2.30;;;;;;;34.96;31.79;100625.44;1785510;78;21295;-76
2023/08/16 08:47:19;;;;;;;7.37;2.72;;;;;;;35.02;32.15;100625.55;1788372;78;21879;-76
2023/08/16 08:50:26;;;;;;;4.00;2.33;;;;;;;35.02;30.95;100619.87;1775176;78;21292;-76
2023/08/16 08:53:33;;;;;;;3.33;1.98;;;;;;;34.16;31.35;100624.10;1785618;78;21276;-76
2023/08/16 08:56:40;;;;;;;4.30;2.40;;;;;;;33.94;31.92;100615.61;1781082;78;21319;-76
2023/08/16 08:59:49;;;;;;;8.40;2.72;;;;;;;33.73;31.82;100613.30;1787945;78;21327;-77
2023/08/16 09:02:59;;;;;;;9.83;3.20;;;;;;;33.91;33.11;100614.25;1785916;78;21268;-77
2023/08/16 09:06:05;;;;;;;6.65;3.42;;;;;;;34.19;33.40;100612.08;1784022;79;21315;-77
2023/08/16 09:09:10;;;;;;;8.33;3.00;;;;;;;34.25;32.80;100617.88;1790276;78;21283;-77
2023/08/16 09:12:18;;;;;;;6.97;3.58;;;;;;;34.75;31.48;100612.44;1791685;78;21208;-76
2023/08/16 09:15:25;;;;;;;6.03;3.42;;;;;;;34.75;31.24;100609.02;1793127;78;21830;-76
2023/08/16 09:18:33;;;;;;;6.22;2.90;;;;;;;34.89;31.32;100605.20;1792078;78;21304;-77
2023/08/16 09:21:39;;;;;;;6.12;3.45;;;;;;;34.97;30.17;100601.56;1769978;79;21319;-76
2023/08/16 09:24:51;;;;;;;6.87;3.80;;;;;;;35.11;29.91;100600.81;1766876;78;21295;-76
2023/08/16 09:27:57;;;;;;;6.37;4.50;;;;;;;34.76;29.77;100603.58;1781502;78;21522;-76
2023/08/16 09:31:04;;;;;;;9.60;3.70;;;;;;;34.89;29.95;100604.61;1774930;79;21335;-76
2023/08/16 09:34:13;;;;;;;8.73;3.45;;;;;;;34.42;30.55;100598.63;1785286;78;21901;-77
2023/08/16 09:37:20;;;;;;;7.75;3.33;;;;;;;34.36;30.72;100602.80;1781834;78;22713;-77
2023/08/16 09:40:27;;;;;;;7.12;3.35;;;;;;;34.19;30.45;100606.40;1785788;79;21373;-78
2023/08/16 09:43:38;;;;;;;5.70;3.77;;;;;;;34.12;30.25;100601.80;1788857;78;21339;-77
2023/08/16 09:46:45;;;;;;;12.80;4.07;;;;;;;33.90;31.82;100602.65;1793720;79;21288;-77
2023/08/16 09:49:54;;;;;;;6.35;3.42;;;;;;;34.39;30.69;100583.66;1794296;78;22632;-77
2023/08/16 09:53:01;;;;;;;6.58;3.47;;;;;;;34.00;31.93;100581.11;1777057;78;21318;-76
2023/08/16 09:56:10;;;;;;;7.75;3.02;;;;;;;33.79;31.68;100583.66;1790012;78;22557;-76
2023/08/16 09:59:18;;;;;;;4.30;3.02;;;;;;;33.94;31.89;100583.81;1787996;79;21268;-77
2023/08/16 10:02:26;;;;;;;12.75;4.12;;;;;;;33.94;32.67;100586.66;1785171;79;22698;-77
2023/08/16 10:05:34;;;;;;;7.08;3.17;;;;;;;34.12;32.35;100581.09;1794999;79;21956;-77
2023/08/16 10:08:42;;;;;;;6.95;2.75;;;;;;;34.29;31.13;100574.04;1791915;79;21319;-77
2023/08/16 10:11:49;;;;;;;8.03;2.90;;;;;;;34.37;31.05;100582.34;1772573;79;21335;-77
2023/08/16 10:14:55;;;;;;;8.68;3.22;;;;;;;34.36;31.09;100574.99;1786459;79;21310;-77
2023/08/16 10:18:04;;;;;;;6.85;2.92;;;;;;;34.23;31.04;100577.61;1755496;81;21292;-77
2023/08/16 10:21:11;;;;;;;4.95;2.33;;;;;;;34.66;30.60;100583.19;1773603;79;21327;-77
2023/08/16 10:24:19;;;;;;;8.40;2.25;;;;;;;34.29;29.59;100570.61;1788339;78;21326;-77
2023/08/16 10:27:26;;;;;;;6.22;3.10;;;;;;;34.32;29.45;100575.64;1788027;79;21296;-77
2023/08/16 10:30:32;;;;;;;6.72;2.35;;;;;;;34.25;29.94;100571.05;1793412;78;21350;-78
2023/08/16 10:34:03;;;;;;;6.15;2.37;;;;;;;34.27;29.90;100573.55;1790414;78;21933;-78
2023/08/16 10:37:10;;;;;;;6.42;2.58;;;;;;;34.52;28.70;100573.38;1673352;83;21367;-78
2023/08/16 10:40:28;;;;;;;4.10;2.10;;;;;;;34.43;28.36;100566.81;1735208;81;21990;-77
2023/08/16 10:43:43;;;;;;;4.40;2.58;;;;;;;34.26;29.08;100567.03;1717563;82;21991;-79
2023/08/16 10:46:51;;;;;;;5.33;2.77;;;;;;;34.55;29.09;100572.73;1718268;82;21754;-78
2023/08/16 10:49:57;;;;;;;4.53;2.40;;;;;;;34.86;29.25;100566.91;1722983;82;21346;-76
2023/08/16 10:53:07;;;;;;;5.67;2.50;;;;;;;34.57;29.90;100560.44;1698379;83;21897;-76
2023/08/16 10:56:14;;;;;;;5.00;2.42;;;;;;;34.57;29.00;100562.70;1708098;82;21350;-77
2023/08/16 10:59:20;;;;;;;7.60;2.42;;;;;;;34.40;28.84;100555.55;1700085;82;21703;-76
2023/08/16 11:02:37;;;;;;;8.73;2.85;;;;;;;34.65;28.76;100555.95;1713036;83;21284;-77
2023/08/16 11:05:43;;;;;;;7.97;2.67;;;;;;;34.38;29.32;100542.25;1661657;85;21255;-77
2023/08/16 11:08:51;;;;;;;11.45;2.77;;;;;;;34.26;29.68;100552.84;1701096;83;21238;-77
2023/08/16 11:11:56;;;;;;;7.20;3.02;;;;;;;34.68;28.66;100544.77;1712672;82;21327;-77
2023/08/16 11:15:02;;;;;;;4.40;2.58;;;;;;;34.87;28.43;100546.45;1721249;82;21310;-76
2023/08/16 11:18:08;;;;;;;4.90;2.75;;;;;;;34.92;27.96;100543.45;1719853;82;21318;-77
2023/08/16 11:21:19;;;;;;;8.73;2.90;;;;;;;34.97;28.32;100544.73;1716741;82;21338;-77
2023/08/16 11:24:25;;;;;;;4.85;2.52;;;;;;;35.18;27.92;100538.59;1709851;82;21443;-77
2023/08/16 11:27:31;;;;;;;6.70;2.70;;;;;;;35.03;27.29;100531.42;1715405;82;21338;-77
2023/08/16 11:30:38;;;;;;;9.93;2.92;;;;;;;34.93;28.11;100525.22;1739138;82;21348;-77
2023/08/16 11:33:48;;;;;;;9.43;3.42;;;;;;;34.99;28.86;100525.32;1724694;82;21973;-78
2023/08/16 11:36:55;;;;;;;4.25;2.33;;;;;;;34.86;28.74;100527.12;1716906;82;21362;-78
2023/08/16 11:40:09;;;;;;;9.90;2.50;;;;;;;35.04;28.59;100518.05;1711840;83;22051;-78
2023/08/16 11:43:15;;;;;;;3.55;2.37;;;;;;;34.61;27.69;100527.38;1737210;82;21349;-77
2023/08/16 11:46:22;;;;;;;3.22;2.30;;;;;;;34.88;27.10;100519.71;1697884;83;21326;-78
2023/08/16 11:49:28;;;;;;;7.95;2.70;;;;;;;34.82;28.00;100517.03;1696932;84;21343;-78
2023/08/16 11:52:34;;;;;;;6.80;2.58;;;;;;;34.87;28.19;100506.09;1694663;83;21960;-78
2023/08/16 11:55:41;;;;;;;3.67;2.30;;;;;;;34.71;27.97;100507.74;1702430;83;21300;-78
2023/08/16 11:58:55;;;;;;;4.85;2.05;;;;;;;34.66;27.17;100508.74;1705698;84;21350;-78
2023/08/16 12:02:15;;;;;;;8.45;2.25;;;;;;;35.00;26.92;100515.63;1708141;82;21379;-78
2023/08/16 12:05:21;;;;;;;8.20;2.55;;;;;;;34.77;26.64;100511.53;1763298;81;21304;-78
2023/08/16 12:08:28;;;;;;;9.70;2.80;;;;;;;35.01;27.05;100511.63;1734187;82;21292;-78
2023/08/16 12:11:38;;;;;;;6.40;2.20;;;;;;;34.88;26.63;100506.33;1751941;81;21358;-78
2023/08/16 12:14:46;;;;;;;7.92;2.90;;;;;;;35.07;26.27;100498.91;1763696;81;21889;-78
2023/08/16 12:17:52;;;;;;;4.25;2.30;;;;;;;34.97;26.88;100503.52;1761328;81;22593;-77
2023/08/16 12:20:58;;;;;;;4.28;2.47;;;;;;;35.21;26.66;100505.24;1761318;81;21299;-76
2023/08/16 12:24:04;;;;;;;5.12;2.30;;;;;;;35.37;27.29;100493.33;1763619;81;21355;-77
2023/08/16 12:27:09;;;;;;;5.72;2.33;;;;;;;35.14;27.80;100483.58;1763311;81;21304;-77
2023/08/16 12:30:15;;;;;;;5.35;2.37;;;;;;;35.09;27.72;100494.54;1764546;81;21319;-77
2023/08/16 12:33:22;;;;;;;13.45;2.98;;;;;;;34.97;28.27;100489.31;1759655;81;21334;-76
2023/08/16 12:36:28;;;;;;;8.95;2.75;;;;;;;35.15;27.72;100487.25;1755617;81;21296;-77
2023/08/16 12:39:34;;;;;;;3.62;2.27;;;;;;;35.20;28.46;100484.27;1723556;83;21347;-77
2023/08/16 12:42:40;;;;;;;6.08;2.70;;;;;;;35.18;28.45;100480.91;1724049;83;21331;-77
2023/08/16 12:45:46;;;;;;;13.80;2.60;;;;;;;35.20;29.38;100491.37;1725494;81;21869;-77
2023/08/16 12:48:51;;;;;;;7.45;2.70;;;;;;;35.05;28.36;100487.03;1683305;83;21315;-76
2023/08/16 12:51:57;;;;;;;6.65;2.60;;;;;;;34.98;28.75;100479.02;1733093;81;21295;-77
2023/08/16 12:55:03;;;;;;;8.30;2.98;;;;;;;34.83;29.28;100487.45;1704725;84;21255;-76
2023/08/16 12:58:08;;;;;;;7.10;2.22;;;;;;;35.03;28.38;100480.86;1673424;85;21348;-77
2023/08/16 13:01:16;;;;;;;5.42;2.42;;;;;;;34.99;29.16;100479.86;1655253;86;22257;-76
2023/08/16 13:04:24;;;;;;;8.53;2.40;;;;;;;35.02;29.05;100468.66;1706326;84;21330;-76
2023/08/16 13:07:32;;;;;;;5.83;2.72;;;;;;;35.03;29.02;100472.33;1679800;85;21895;-77
2023/08/16 13:10:40;;;;;;;4.92;2.20;;;;;;;35.22;29.73;100478.48;1679859;85;21979;-76
2023/08/16 13:13:48;;;;;;;7.22;2.87;;;;;;;35.30;29.45;100473.36;1681562;85;21910;-77
2023/08/16 13:16:56;;;;;;;6.65;2.90;;;;;;;35.27;29.62;100468.34;1685280;84;21357;-77
2023/08/16 13:20:05;;;;;;;7.35;3.02;;;;;;;35.37;28.87;100463.47;1697883;84;21364;-77
2023/08/16 13:23:12;;;;;;;4.12;2.83;;;;;;;35.09;29.81;100463.87;1740977;82;21867;-77
2023/08/16 13:26:20;;;;;;;3.15;2.33;;;;;;;35.00;29.59;100461.63;1739044;82;21888;-76
2023/08/16 13:29:27;;;;;;;4.45;2.50;;;;;;;34.87;29.51;100469.16;1741136;82;21304;-77
2023/08/16 13:32:34;;;;;;;9.00;2.85;;;;;;;34.91;30.30;100466.45;1741091;82;21313;-77
2023/08/16 13:35:47;;;;;;;4.80;3.00;;;;;;;35.00;30.35;100467.31;1740423;82;21336;-77
2023/08/16 13:38:55;;;;;;;11.57;2.45;;;;;;;34.99;29.74;100459.96;1741532;82;21316;-78
2023/08/16 13:42:03;;;;;;;7.60;2.35;;;;;;;34.94;29.32;100458.09;1741299;82;21887;-78
2023/08/16 13:45:13;;;;;;;4.10;2.33;;;;;;;34.76;29.49;100457.27;1720957;83;21351;-78
2023/08/16 13:48:19;;;;;;;5.80;2.52;;;;;;;34.80;30.35;100455.44;1715192;83;21287;-78
2023/08/16 13:51:24;;;;;;;4.75;2.17;;;;;;;34.75;29.96;100444.25;1711094;84;21877;-78
2023/08/16 13:54:31;;;;;;;6.97;2.02;;;;;;;34.74;30.24;100444.00;1710974;84;21323;-78
2023/08/16 13:57:36;;;;;;;3.98;2.75;;;;;;;34.66;30.34;100440.58;1711106;84;21318;-78
2023/08/16 14:00:42;;;;;;;4.62;2.55;;;;;;;34.87;30.11;100437.91;1710947;84;21941;-78
2023/08/16 14:03:49;;;;;;;6.37;2.10;;;;;;;34.83;29.60;100429.80;1710574;84;21307;-78
2023/08/16 14:06:55;;;;;;;5.12;2.20;;;;;;;35.01;29.59;100436.32;1694305;83;21374;-77
2023/08/16 14:10:01;;;;;;;6.83;2.33;;;;;;;35.15;29.70;100434.67;1700997;84;21329;-77
2023/08/16 14:13:06;;;;;;;8.00;2.40;;;;;;;34.82;29.72;100427.55;1689686;84;21320;-78
2023/08/16 14:16:13;;;;;;;14.23;3.52;;;;;;;34.86;29.80;100433.37;1677646;85;21351;-78
2023/08/16 14:19:19;;;;;;;20.60;12.05;;;;;;;34.93;30.04;100420.92;1678174;85;21365;-78
2023/08/16 14:22:24;;;;;;;9.33;5.05;;;;;;;34.85;29.88;100417.50;1666714;86;21366;-78
2023/08/16 14:25:30;;;;;;;6.67;2.60;;;;;;;34.74;30.07;100418.44;1671684;86;21235;-78